TPC2022 KATL-KMCN
Flight info
| Callsign | TPC2022 |
|---|---|
| Flight time | 0h 49m |
| Altitude | 7000 |
| Route | ATL2 SOONE MCN |
| Aircraft | C172/L-SD/S |
Departure
| Time | 2026-05-08 15:27 |
|---|---|
| Airport | Hartsfield Jackson Atlanta International Airport (KATL) |
Arrival
| Time | 2026-05-08 16:16 |
|---|---|
| Airport | Middle Georgia Regional Airport (KMCN) |
| Time | Latitude | Longitude | Altitude | Speed | Heading |
|---|---|---|---|---|---|
| 2026-05-08 14:57 | 33.65208 | -84.42370 | 982 ft | 0 kts | 270° |
| 2026-05-08 15:22 | 33.65208 | -84.42371 | 982 ft | 1 kts | 268° |
| 2026-05-08 15:23 | 33.65198 | -84.42406 | 983 ft | 8 kts | 246° |
| 2026-05-08 15:23 | 33.65174 | -84.42480 | 984 ft | 9 kts | 260° |
| 2026-05-08 15:23 | 33.65161 | -84.42551 | 985 ft | 7 kts | 242° |
| 2026-05-08 15:23 | 33.65128 | -84.42587 | 986 ft | 7 kts | 198° |
| 2026-05-08 15:24 | 33.65075 | -84.42612 | 986 ft | 8 kts | 230° |
| 2026-05-08 15:24 | 33.65064 | -84.42680 | 988 ft | 8 kts | 271° |
| 2026-05-08 15:24 | 33.65064 | -84.42750 | 989 ft | 8 kts | 271° |
| 2026-05-08 15:24 | 33.65064 | -84.42811 | 990 ft | 7 kts | 270° |
| 2026-05-08 15:25 | 33.65060 | -84.42874 | 991 ft | 7 kts | 245° |
| 2026-05-08 15:25 | 33.65047 | -84.42896 | 992 ft | 0 kts | 221° |
| 2026-05-08 15:25 | 33.65038 | -84.42902 | 992 ft | 8 kts | 197° |
| 2026-05-08 15:26 | 33.64960 | -84.42881 | 992 ft | 12 kts | 129° |
| 2026-05-08 15:26 | 33.64955 | -84.42693 | 988 ft | 47 kts | 90° |
| 2026-05-08 15:26 | 33.64945 | -84.42142 | 1085 ft | 74 kts | 92° |
| 2026-05-08 15:26 | 33.64900 | -84.41533 | 1326 ft | 74 kts | 95° |
| 2026-05-08 15:27 | 33.64843 | -84.40926 | 1562 ft | 74 kts | 95° |
| 2026-05-08 15:27 | 33.65013 | -84.40366 | 1772 ft | 77 kts | 38° |
| 2026-05-08 15:27 | 33.65535 | -84.40301 | 2010 ft | 80 kts | 341° |
| 2026-05-08 15:27 | 33.66017 | -84.40651 | 2235 ft | 82 kts | 331° |
| 2026-05-08 15:28 | 33.66485 | -84.41016 | 2467 ft | 81 kts | 334° |
| 2026-05-08 15:28 | 33.66856 | -84.41527 | 2666 ft | 88 kts | 285° |
| 2026-05-08 15:28 | 33.66828 | -84.42257 | 2897 ft | 87 kts | 266° |
| 2026-05-08 15:28 | 33.66777 | -84.42984 | 3117 ft | 88 kts | 267° |
| 2026-05-08 15:29 | 33.66731 | -84.43713 | 3387 ft | 86 kts | 262° |
| 2026-05-08 15:29 | 33.66386 | -84.44254 | 3631 ft | 85 kts | 200° |
| 2026-05-08 15:29 | 33.65804 | -84.44284 | 3870 ft | 85 kts | 176° |
| 2026-05-08 15:29 | 33.65209 | -84.44253 | 4108 ft | 86 kts | 178° |
| 2026-05-08 15:30 | 33.64623 | -84.44218 | 4360 ft | 85 kts | 175° |
| 2026-05-08 15:30 | 33.64045 | -84.44132 | 4624 ft | 82 kts | 175° |
| 2026-05-08 15:30 | 33.63461 | -84.44031 | 4833 ft | 87 kts | 176° |
| 2026-05-08 15:30 | 33.62868 | -84.43932 | 5084 ft | 85 kts | 175° |
| 2026-05-08 15:31 | 33.62294 | -84.43831 | 5321 ft | 84 kts | 180° |
| 2026-05-08 15:31 | 33.61706 | -84.43718 | 5546 ft | 87 kts | 167° |
| 2026-05-08 15:31 | 33.61163 | -84.43385 | 5765 ft | 88 kts | 161° |
| 2026-05-08 15:31 | 33.60608 | -84.43059 | 5991 ft | 88 kts | 163° |
| 2026-05-08 15:32 | 33.60047 | -84.42746 | 6188 ft | 92 kts | 165° |
| 2026-05-08 15:32 | 33.59462 | -84.42439 | 6424 ft | 88 kts | 168° |
| 2026-05-08 15:32 | 33.58890 | -84.42135 | 6614 ft | 92 kts | 169° |
| 2026-05-08 15:32 | 33.58305 | -84.41835 | 6840 ft | 90 kts | 169° |
| 2026-05-08 15:33 | 33.57743 | -84.41498 | 7051 ft | 93 kts | 158° |
| 2026-05-08 15:33 | 33.57200 | -84.41058 | 7243 ft | 96 kts | 154° |
| 2026-05-08 15:33 | 33.56655 | -84.40610 | 7437 ft | 95 kts | 161° |
| 2026-05-08 15:33 | 33.56091 | -84.40210 | 7634 ft | 94 kts | 162° |
| 2026-05-08 15:34 | 33.55529 | -84.39772 | 7809 ft | 98 kts | 160° |
| 2026-05-08 15:34 | 33.54940 | -84.39314 | 7961 ft | 104 kts | 160° |
| 2026-05-08 15:34 | 33.54245 | -84.38806 | 7909 ft | 127 kts | 159° |
| 2026-05-08 15:34 | 33.53454 | -84.38248 | 7870 ft | 138 kts | 160° |
| 2026-05-08 15:35 | 33.52618 | -84.37668 | 7842 ft | 137 kts | 160° |
| 2026-05-08 15:35 | 33.51791 | -84.37105 | 7833 ft | 136 kts | 161° |
| 2026-05-08 15:35 | 33.50955 | -84.36533 | 7765 ft | 138 kts | 160° |
| 2026-05-08 15:35 | 33.50115 | -84.35960 | 7636 ft | 138 kts | 160° |
| 2026-05-08 15:36 | 33.49287 | -84.35417 | 7519 ft | 133 kts | 161° |
| 2026-05-08 15:36 | 33.48742 | -84.35081 | 7414 ft | 133 kts | 163° |
| 2026-05-08 15:36 | 33.47640 | -84.34413 | 7203 ft | 131 kts | 162° |
| 2026-05-08 15:36 | 33.46819 | -84.33929 | 7041 ft | 132 kts | 163° |
| 2026-05-08 15:37 | 33.46264 | -84.33610 | 6977 ft | 134 kts | 162° |
| 2026-05-08 15:37 | 33.45141 | -84.32950 | 6946 ft | 134 kts | 161° |
| 2026-05-08 15:37 | 33.44311 | -84.32436 | 6940 ft | 134 kts | 161° |
| 2026-05-08 15:37 | 33.43483 | -84.31908 | 6936 ft | 134 kts | 160° |
| 2026-05-08 15:38 | 33.42653 | -84.31376 | 6918 ft | 135 kts | 162° |
| 2026-05-08 15:38 | 33.41832 | -84.30843 | 6926 ft | 134 kts | 159° |
| 2026-05-08 15:38 | 33.41040 | -84.30235 | 6928 ft | 136 kts | 152° |
| 2026-05-08 15:38 | 33.40233 | -84.29701 | 6941 ft | 132 kts | 162° |
| 2026-05-08 15:39 | 33.39407 | -84.29176 | 6929 ft | 133 kts | 161° |
| 2026-05-08 15:39 | 33.38597 | -84.28651 | 6937 ft | 133 kts | 160° |
| 2026-05-08 15:39 | 33.37790 | -84.28120 | 6970 ft | 130 kts | 161° |
| 2026-05-08 15:39 | 33.36995 | -84.27631 | 6987 ft | 130 kts | 161° |
| 2026-05-08 15:40 | 33.36194 | -84.27107 | 6996 ft | 131 kts | 159° |
| 2026-05-08 15:40 | 33.35393 | -84.26559 | 6995 ft | 132 kts | 159° |
| 2026-05-08 15:40 | 33.34594 | -84.26015 | 6988 ft | 132 kts | 161° |
| 2026-05-08 15:40 | 33.33791 | -84.25498 | 6999 ft | 132 kts | 161° |
| 2026-05-08 15:41 | 33.32984 | -84.24942 | 7001 ft | 133 kts | 158° |
| 2026-05-08 15:41 | 33.32184 | -84.24374 | 6983 ft | 134 kts | 159° |
| 2026-05-08 15:41 | 33.31382 | -84.23805 | 6992 ft | 133 kts | 159° |
| 2026-05-08 15:41 | 33.30583 | -84.23227 | 6983 ft | 135 kts | 158° |
| 2026-05-08 15:42 | 33.29784 | -84.22627 | 6996 ft | 134 kts | 158° |
| 2026-05-08 15:42 | 33.28974 | -84.22060 | 6993 ft | 135 kts | 159° |
| 2026-05-08 15:42 | 33.28165 | -84.21517 | 7021 ft | 131 kts | 162° |
| 2026-05-08 15:42 | 33.27359 | -84.21014 | 7045 ft | 130 kts | 163° |
| 2026-05-08 15:43 | 33.26550 | -84.20528 | 7037 ft | 132 kts | 165° |
| 2026-05-08 15:43 | 33.25713 | -84.20026 | 7008 ft | 135 kts | 162° |
| 2026-05-08 15:43 | 33.24866 | -84.19507 | 6984 ft | 135 kts | 163° |
| 2026-05-08 15:43 | 33.24025 | -84.18992 | 6963 ft | 136 kts | 162° |
| 2026-05-08 15:44 | 33.23187 | -84.18478 | 6965 ft | 134 kts | 163° |
| 2026-05-08 15:44 | 33.22342 | -84.17999 | 6929 ft | 136 kts | 163° |
| 2026-05-08 15:44 | 33.21489 | -84.17511 | 6901 ft | 136 kts | 164° |
| 2026-05-08 15:44 | 33.20638 | -84.17024 | 6902 ft | 133 kts | 163° |
| 2026-05-08 15:45 | 33.19790 | -84.16531 | 6875 ft | 135 kts | 164° |
| 2026-05-08 15:45 | 33.18955 | -84.16060 | 6885 ft | 133 kts | 165° |
| 2026-05-08 15:45 | 33.18144 | -84.15483 | 6909 ft | 133 kts | 158° |
| 2026-05-08 15:45 | 33.17354 | -84.14902 | 6887 ft | 136 kts | 158° |
| 2026-05-08 15:46 | 33.16561 | -84.14251 | 6896 ft | 138 kts | 149° |
| 2026-05-08 15:46 | 33.15823 | -84.13512 | 6898 ft | 137 kts | 155° |
| 2026-05-08 15:46 | 33.15005 | -84.12962 | 6902 ft | 134 kts | 163° |
| 2026-05-08 15:46 | 33.14173 | -84.12435 | 6899 ft | 135 kts | 161° |
| 2026-05-08 15:47 | 33.13354 | -84.11910 | 6918 ft | 133 kts | 161° |
| 2026-05-08 15:47 | 33.12535 | -84.11376 | 6908 ft | 135 kts | 162° |
| 2026-05-08 15:47 | 33.11708 | -84.10830 | 6910 ft | 135 kts | 161° |
| 2026-05-08 15:47 | 33.10894 | -84.10273 | 6920 ft | 134 kts | 161° |
| 2026-05-08 15:48 | 33.09290 | -84.09135 | 6946 ft | 134 kts | 158° |
| 2026-05-08 15:48 | 33.08506 | -84.08511 | 6936 ft | 136 kts | 154° |
| 2026-05-08 15:48 | 33.07713 | -84.07917 | 6961 ft | 132 kts | 161° |
| 2026-05-08 15:49 | 33.06894 | -84.07429 | 6985 ft | 130 kts | 165° |
| 2026-05-08 15:49 | 33.06071 | -84.06966 | 6981 ft | 132 kts | 165° |
| 2026-05-08 15:49 | 33.05234 | -84.06496 | 6936 ft | 138 kts | 158° |
| 2026-05-08 15:49 | 33.04432 | -84.05870 | 6962 ft | 136 kts | 156° |
| 2026-05-08 15:50 | 33.03626 | -84.05266 | 6976 ft | 134 kts | 159° |
| 2026-05-08 15:50 | 33.02838 | -84.04649 | 6979 ft | 136 kts | 156° |
| 2026-05-08 15:50 | 33.02040 | -84.04060 | 6954 ft | 136 kts | 161° |
| 2026-05-08 15:50 | 33.01212 | -84.03512 | 6963 ft | 134 kts | 160° |
| 2026-05-08 15:51 | 33.00400 | -84.02935 | 6921 ft | 138 kts | 160° |
| 2026-05-08 15:51 | 32.99576 | -84.02333 | 6939 ft | 136 kts | 159° |
| 2026-05-08 15:51 | 32.98770 | -84.01744 | 6925 ft | 137 kts | 160° |
| 2026-05-08 15:51 | 32.97957 | -84.01148 | 6950 ft | 135 kts | 159° |
| 2026-05-08 15:52 | 32.97156 | -84.00573 | 6967 ft | 135 kts | 160° |
| 2026-05-08 15:52 | 32.96351 | -84.00005 | 7006 ft | 133 kts | 160° |
| 2026-05-08 15:52 | 32.95543 | -83.99428 | 6992 ft | 136 kts | 159° |
| 2026-05-08 15:52 | 32.94740 | -83.98848 | 7002 ft | 135 kts | 158° |
| 2026-05-08 15:53 | 32.93928 | -83.98240 | 6983 ft | 138 kts | 157° |
| 2026-05-08 15:53 | 32.93109 | -83.97644 | 6976 ft | 138 kts | 159° |
| 2026-05-08 15:53 | 32.92293 | -83.97068 | 7001 ft | 136 kts | 160° |
| 2026-05-08 15:53 | 32.91471 | -83.96491 | 6987 ft | 137 kts | 158° |
| 2026-05-08 15:54 | 32.90657 | -83.95883 | 6975 ft | 138 kts | 157° |
| 2026-05-08 15:54 | 32.89840 | -83.95264 | 6979 ft | 137 kts | 158° |
| 2026-05-08 15:54 | 32.89030 | -83.94656 | 6990 ft | 136 kts | 159° |
| 2026-05-08 15:54 | 32.88229 | -83.94041 | 6986 ft | 137 kts | 157° |
| 2026-05-08 15:55 | 32.87444 | -83.93424 | 7001 ft | 136 kts | 157° |
| 2026-05-08 15:55 | 32.85869 | -83.92177 | 7040 ft | 136 kts | 156° |
| 2026-05-08 15:55 | 32.85072 | -83.91559 | 7050 ft | 135 kts | 159° |
| 2026-05-08 15:56 | 32.84261 | -83.91009 | 7095 ft | 131 kts | 165° |
| 2026-05-08 15:56 | 32.83465 | -83.90424 | 7086 ft | 137 kts | 157° |
| 2026-05-08 15:56 | 32.82664 | -83.89799 | 7111 ft | 135 kts | 159° |
| 2026-05-08 15:56 | 32.81850 | -83.89222 | 7088 ft | 137 kts | 161° |
| 2026-05-08 15:57 | 32.81033 | -83.88644 | 7120 ft | 135 kts | 160° |
| 2026-05-08 15:57 | 32.80230 | -83.88049 | 7139 ft | 135 kts | 159° |
| 2026-05-08 15:57 | 32.79437 | -83.87470 | 7168 ft | 134 kts | 160° |
| 2026-05-08 15:57 | 32.78627 | -83.86896 | 7165 ft | 136 kts | 160° |
| 2026-05-08 15:58 | 32.77803 | -83.86314 | 7175 ft | 135 kts | 160° |
| 2026-05-08 15:58 | 32.76991 | -83.85770 | 7174 ft | 135 kts | 161° |
| 2026-05-08 15:58 | 32.76170 | -83.85205 | 7190 ft | 135 kts | 160° |
| 2026-05-08 15:58 | 32.75349 | -83.84652 | 7193 ft | 135 kts | 161° |
| 2026-05-08 15:59 | 32.74529 | -83.84107 | 7179 ft | 136 kts | 162° |
| 2026-05-08 15:59 | 32.73703 | -83.83560 | 7116 ft | 135 kts | 162° |
| 2026-05-08 15:59 | 32.72879 | -83.83006 | 6985 ft | 135 kts | 160° |
| 2026-05-08 15:59 | 32.72073 | -83.82432 | 6837 ft | 137 kts | 159° |
| 2026-05-08 16:00 | 32.71256 | -83.81837 | 6709 ft | 135 kts | 160° |
| 2026-05-08 16:00 | 32.70458 | -83.81290 | 6599 ft | 133 kts | 160° |
| 2026-05-08 16:00 | 32.69658 | -83.80728 | 6475 ft | 133 kts | 158° |
| 2026-05-08 16:00 | 32.68877 | -83.80106 | 6338 ft | 134 kts | 154° |
| 2026-05-08 16:01 | 32.68112 | -83.79510 | 6238 ft | 131 kts | 158° |
| 2026-05-08 16:01 | 32.67311 | -83.79007 | 6107 ft | 127 kts | 168° |
| 2026-05-08 16:01 | 32.66481 | -83.78762 | 5966 ft | 121 kts | 185° |
| 2026-05-08 16:01 | 32.65632 | -83.78664 | 5803 ft | 121 kts | 191° |
| 2026-05-08 16:02 | 32.64829 | -83.78863 | 5648 ft | 116 kts | 204° |
| 2026-05-08 16:02 | 32.64037 | -83.79120 | 5463 ft | 118 kts | 205° |
| 2026-05-08 16:02 | 32.63254 | -83.79418 | 5324 ft | 116 kts | 206° |
| 2026-05-08 16:02 | 32.62493 | -83.79752 | 5164 ft | 116 kts | 211° |
| 2026-05-08 16:03 | 32.61732 | -83.80084 | 5005 ft | 118 kts | 205° |
| 2026-05-08 16:03 | 32.60937 | -83.80381 | 4821 ft | 121 kts | 204° |
| 2026-05-08 16:03 | 32.60122 | -83.80652 | 4664 ft | 120 kts | 202° |
| 2026-05-08 16:03 | 32.59320 | -83.80939 | 4476 ft | 119 kts | 202° |
| 2026-05-08 16:04 | 32.58526 | -83.81226 | 4178 ft | 121 kts | 202° |
| 2026-05-08 16:04 | 32.57706 | -83.81525 | 3884 ft | 122 kts | 200° |
| 2026-05-08 16:04 | 32.56894 | -83.81829 | 3606 ft | 123 kts | 200° |
| 2026-05-08 16:04 | 32.56056 | -83.82001 | 3332 ft | 123 kts | 185° |
| 2026-05-08 16:05 | 32.55205 | -83.82095 | 3101 ft | 122 kts | 185° |
| 2026-05-08 16:05 | 32.54367 | -83.82204 | 2869 ft | 120 kts | 185° |
| 2026-05-08 16:05 | 32.53538 | -83.82321 | 2628 ft | 119 kts | 186° |
| 2026-05-08 16:05 | 32.52715 | -83.82447 | 2382 ft | 119 kts | 188° |
| 2026-05-08 16:06 | 32.52009 | -83.82942 | 2114 ft | 123 kts | 234° |
| 2026-05-08 16:06 | 32.51802 | -83.83910 | 2152 ft | 121 kts | 276° |
| 2026-05-08 16:06 | 32.52076 | -83.84805 | 2220 ft | 117 kts | 316° |
| 2026-05-08 16:06 | 32.52812 | -83.85146 | 2225 ft | 116 kts | 5° |
| 2026-05-08 16:07 | 32.53506 | -83.84719 | 2249 ft | 114 kts | 45° |
| 2026-05-08 16:07 | 32.54101 | -83.84121 | 2264 ft | 108 kts | 38° |
| 2026-05-08 16:07 | 32.54707 | -83.83588 | 2180 ft | 109 kts | 32° |
| 2026-05-08 16:07 | 32.55356 | -83.83122 | 2084 ft | 110 kts | 31° |
| 2026-05-08 16:08 | 32.55985 | -83.82592 | 2123 ft | 110 kts | 46° |
| 2026-05-08 16:08 | 32.56480 | -83.81990 | 2177 ft | 90 kts | 46° |
| 2026-05-08 16:08 | 32.56887 | -83.81445 | 2172 ft | 87 kts | 50° |
| 2026-05-08 16:08 | 32.57271 | -83.80877 | 2140 ft | 87 kts | 52° |
| 2026-05-08 16:09 | 32.57643 | -83.80315 | 2137 ft | 85 kts | 49° |
| 2026-05-08 16:09 | 32.57906 | -83.79965 | 2115 ft | 86 kts | 49° |
| 2026-05-08 16:09 | 32.58430 | -83.79260 | 2093 ft | 85 kts | 49° |
| 2026-05-08 16:09 | 32.58829 | -83.78728 | 2076 ft | 86 kts | 47° |
| 2026-05-08 16:10 | 32.59230 | -83.78209 | 2078 ft | 85 kts | 48° |
| 2026-05-08 16:10 | 32.59631 | -83.77686 | 2072 ft | 85 kts | 47° |
| 2026-05-08 16:10 | 32.60033 | -83.77163 | 2066 ft | 85 kts | 49° |
| 2026-05-08 16:10 | 32.60429 | -83.76631 | 2057 ft | 86 kts | 47° |
| 2026-05-08 16:11 | 32.60843 | -83.76125 | 2061 ft | 85 kts | 45° |
| 2026-05-08 16:11 | 32.61272 | -83.75630 | 2040 ft | 87 kts | 45° |
| 2026-05-08 16:11 | 32.61670 | -83.75101 | 2043 ft | 86 kts | 48° |
| 2026-05-08 16:11 | 32.62069 | -83.74583 | 2057 ft | 83 kts | 44° |
| 2026-05-08 16:12 | 32.62502 | -83.74097 | 1947 ft | 87 kts | 41° |
| 2026-05-08 16:12 | 32.62922 | -83.73589 | 1925 ft | 86 kts | 47° |
| 2026-05-08 16:12 | 32.63315 | -83.73051 | 1849 ft | 86 kts | 49° |
| 2026-05-08 16:12 | 32.63688 | -83.72491 | 1713 ft | 89 kts | 52° |
| 2026-05-08 16:13 | 32.64067 | -83.71899 | 1575 ft | 89 kts | 52° |
| 2026-05-08 16:13 | 32.64480 | -83.71367 | 1439 ft | 89 kts | 44° |
| 2026-05-08 16:13 | 32.64926 | -83.70859 | 1360 ft | 85 kts | 46° |
| 2026-05-08 16:13 | 32.65319 | -83.70340 | 1306 ft | 84 kts | 49° |
| 2026-05-08 16:14 | 32.65703 | -83.69807 | 1196 ft | 87 kts | 50° |
| 2026-05-08 16:14 | 32.66125 | -83.69292 | 1067 ft | 87 kts | 47° |
| 2026-05-08 16:14 | 32.66561 | -83.68769 | 930 ft | 89 kts | 46° |
| 2026-05-08 16:14 | 32.66965 | -83.68224 | 832 ft | 86 kts | 52° |
| 2026-05-08 16:15 | 32.67323 | -83.67728 | 734 ft | 67 kts | 48° |
| 2026-05-08 16:15 | 32.67633 | -83.67344 | 640 ft | 63 kts | 50° |
| 2026-05-08 16:15 | 32.67917 | -83.66967 | 556 ft | 60 kts | 48° |
| 2026-05-08 16:15 | 32.68196 | -83.66594 | 462 ft | 60 kts | 50° |
| 2026-05-08 16:16 | 32.68476 | -83.66232 | 402 ft | 59 kts | 50° |
| 2026-05-08 16:16 | 32.68752 | -83.65867 | 322 ft | 60 kts | 48° |
| 2026-05-08 16:16 | 32.68962 | -83.65591 | 327 ft | 31 kts | 49° |
| 2026-05-08 16:16 | 32.69070 | -83.65449 | 332 ft | 18 kts | 47° |
| 2026-05-08 16:17 | 32.69172 | -83.65315 | 337 ft | 25 kts | 48° |
| 2026-05-08 16:17 | 32.69256 | -83.65205 | 340 ft | 25 kts | 48° |
| 2026-05-08 16:17 | 32.69391 | -83.65210 | 338 ft | 2 kts | 317° |
| 2026-05-08 16:17 | 32.69392 | -83.65211 | 338 ft | 0 kts | 318° |
| 2026-05-08 16:18 | 32.69397 | -83.65215 | 338 ft | 5 kts | 330° |
| 2026-05-08 16:19 | 32.69450 | -83.65198 | 338 ft | 8 kts | 27° |
| 2026-05-08 16:19 | 32.69515 | -83.65163 | 340 ft | 11 kts | 20° |
| 2026-05-08 16:19 | 32.69603 | -83.65136 | 339 ft | 13 kts | 9° |
| 2026-05-08 16:19 | 32.69706 | -83.65130 | 339 ft | 15 kts | 357° |
| 2026-05-08 16:20 | 32.69781 | -83.65125 | 340 ft | 0 kts | 30° |
| 2026-05-08 16:20 | 32.69800 | -83.65106 | 341 ft | 14 kts | 43° |
| 2026-05-08 16:20 | 32.69889 | -83.65008 | 346 ft | 17 kts | 43° |
| 2026-05-08 16:21 | 32.69975 | -83.64920 | 350 ft | 15 kts | 40° |
| 2026-05-08 16:21 | 32.70051 | -83.64827 | 353 ft | 16 kts | 50° |
| 2026-05-08 16:21 | 32.70113 | -83.64723 | 355 ft | 12 kts | 57° |
| 2026-05-08 16:21 | 32.70135 | -83.64673 | 355 ft | 0 kts | 66° |